createdAt,value
2019-04-20T00:00:29.418Z,17.14
2019-04-20T00:03:00.991Z,17.09
2019-04-20T00:05:30.910Z,17.05
2019-04-20T00:08:07.841Z,17.06
2019-04-20T00:10:44.739Z,17.05
2019-04-20T00:13:16.346Z,17.09
2019-04-20T00:15:36.753Z,17.02
2019-04-20T00:18:08.540Z,16.88
2019-04-20T00:20:40.794Z,17.01
2019-04-20T00:23:26.994Z,16.87
2019-04-20T00:26:19.438Z,16.79
2019-04-20T00:29:00.195Z,16.77
2019-04-20T00:31:29.776Z,16.86
2019-04-20T00:33:57.496Z,16.64
2019-04-20T00:36:18.043Z,16.71
2019-04-20T00:38:51.959Z,16.79
2019-04-20T00:41:21.258Z,16.76
2019-04-20T00:43:51.180Z,16.82
2019-04-20T00:46:30.447Z,16.80
2019-04-20T00:48:59.463Z,16.64
2019-04-20T00:51:41.910Z,16.55
2019-04-20T00:53:58.735Z,16.54
2019-04-20T00:56:27.380Z,16.41
2019-04-20T00:59:13.098Z,16.33
2019-04-20T01:01:50.244Z,16.49
2019-04-20T01:04:20.207Z,16.44
2019-04-20T01:06:55.083Z,16.28
2019-04-20T01:09:14.108Z,16.22
2019-04-20T01:11:47.888Z,16.23
2019-04-20T01:14:17.173Z,16.31
2019-04-20T01:16:54.961Z,16.23
2019-04-20T01:19:19.172Z,16.09
2019-04-20T01:21:57.877Z,16.07
2019-04-20T01:24:29.641Z,15.87
2019-04-20T01:26:55.914Z,15.76
2019-04-20T01:29:33.282Z,15.74
2019-04-20T01:32:13.804Z,15.69
2019-04-20T01:34:41.640Z,15.66
2019-04-20T01:37:14.496Z,15.66
2019-04-20T01:39:37.085Z,15.55
2019-04-20T01:42:02.384Z,15.57
2019-04-20T01:44:38.506Z,15.51
2019-04-20T01:47:06.578Z,15.51
2019-04-20T01:49:37.378Z,15.46
2019-04-20T01:52:16.419Z,15.50
2019-04-20T01:55:02.580Z,15.44
2019-04-20T01:57:45.841Z,15.32
2019-04-20T02:00:10.631Z,15.35
2019-04-20T02:02:53.874Z,15.34
2019-04-20T02:05:24.752Z,15.20
2019-04-20T02:07:53.910Z,15.14
2019-04-20T02:10:33.343Z,15.16
2019-04-20T02:12:59.410Z,15.20
2019-04-20T02:15:32.964Z,15.24
2019-04-20T02:18:10.338Z,15.12
2019-04-20T02:20:48.588Z,15.03
2019-04-20T02:23:15.901Z,14.97
2019-04-20T02:25:31.363Z,15.02
2019-04-20T02:28:17.553Z,14.97
2019-04-20T02:31:15.577Z,14.91
2019-04-20T02:33:55.655Z,14.95
2019-04-20T02:36:27.869Z,15.02
2019-04-20T02:44:15.973Z,14.91
2019-04-20T02:46:42.781Z,14.94
2019-04-20T02:49:26.126Z,15.00
2019-04-20T02:51:46.834Z,14.92
2019-04-20T02:56:48.098Z,14.87
2019-04-20T03:01:36.960Z,14.84
2019-04-20T03:03:54.844Z,14.86
2019-04-20T03:06:35.039Z,14.78
2019-04-20T03:09:17.509Z,14.70
2019-04-20T03:11:52.766Z,14.65
2019-04-20T03:14:14.913Z,14.66
2019-04-20T03:16:44.693Z,14.76
2019-04-20T03:19:17.107Z,14.76
2019-04-20T03:21:52.652Z,14.73
2019-04-20T03:26:56.899Z,14.69
2019-04-20T03:29:34.891Z,14.66
2019-04-20T03:35:00.575Z,14.45
2019-04-20T03:37:12.928Z,14.45
2019-04-20T03:39:39.001Z,14.46
2019-04-20T03:41:54.882Z,14.47
2019-04-20T03:44:26.382Z,14.39
2019-04-20T03:46:59.779Z,14.47
2019-04-20T03:49:48.207Z,14.38
2019-04-20T03:52:32.955Z,14.39
2019-04-20T03:54:54.353Z,14.37
2019-04-20T03:57:45.901Z,14.38
2019-04-20T04:00:34.290Z,14.44
2019-04-20T04:03:19.989Z,14.39
2019-04-20T04:05:42.028Z,14.27
2019-04-20T04:08:07.614Z,14.31
2019-04-20T04:10:44.299Z,14.35
2019-04-20T04:13:18.791Z,14.36
2019-04-20T04:15:55.709Z,14.31
2019-04-20T04:18:29.734Z,14.22
2019-04-20T04:21:00.101Z,14.25
2019-04-20T04:23:58.964Z,14.15
2019-04-20T04:26:18.709Z,14.14
2019-04-20T04:28:44.887Z,14.13
2019-04-20T04:31:17.657Z,14.11
2019-04-20T04:33:55.965Z,14.08
2019-04-20T04:36:17.820Z,14.09
2019-04-20T04:38:58.045Z,14.03
2019-04-20T04:41:26.582Z,14.04
2019-04-20T04:43:55.211Z,13.98
2019-04-20T04:46:10.220Z,13.95
2019-04-20T04:48:43.907Z,14.04
2019-04-20T04:51:20.003Z,13.99
2019-04-20T04:53:52.982Z,14.07
2019-04-20T04:56:18.377Z,14.09
2019-04-20T04:58:46.785Z,14.05
2019-04-20T05:01:22.354Z,13.97
2019-04-20T05:04:14.660Z,14.20
2019-04-20T05:06:33.016Z,14.23
2019-04-20T05:08:56.583Z,14.16
2019-04-20T05:11:23.805Z,14.25
2019-04-20T05:14:01.611Z,14.38
2019-04-20T05:16:46.022Z,14.37
2019-04-20T05:19:18.782Z,14.40
2019-04-20T05:21:57.425Z,14.53
2019-04-20T05:24:36.900Z,14.56
2019-04-20T05:27:29.015Z,14.58
2019-04-20T05:29:39.504Z,14.77
2019-04-20T05:32:14.793Z,14.76
2019-04-20T05:35:06.945Z,14.67
2019-04-20T05:37:45.765Z,14.85
2019-04-20T05:40:05.898Z,15.05
2019-04-20T05:42:41.198Z,15.08
2019-04-20T05:45:07.554Z,15.19
2019-04-20T05:47:39.977Z,15.57
2019-04-20T05:50:04.950Z,16.15
2019-04-20T05:52:50.896Z,17.09
2019-04-20T05:55:14.693Z,16.32
2019-04-20T05:57:50.768Z,15.81
2019-04-20T06:00:21.495Z,15.68
2019-04-20T06:02:49.859Z,15.85
2019-04-20T06:05:25.263Z,15.82
2019-04-20T06:07:55.066Z,15.73
2019-04-20T06:10:27.483Z,15.89
2019-04-20T06:12:55.538Z,16.02
2019-04-20T06:15:36.723Z,16.17
2019-04-20T06:18:02.765Z,16.07
2019-04-20T06:20:41.233Z,16.00
2019-04-20T06:23:33.256Z,15.98
2019-04-20T06:26:17.181Z,16.08
2019-04-20T06:28:27.978Z,15.99
2019-04-20T06:30:59.474Z,16.15
2019-04-20T06:36:47.159Z,16.32
2019-04-20T06:39:17.527Z,16.42
2019-04-20T06:42:00.159Z,16.47
2019-04-20T06:44:26.712Z,16.62
2019-04-20T06:46:53.731Z,16.62
2019-04-20T06:49:22.444Z,16.71
2019-04-20T06:51:52.801Z,16.79
2019-04-20T06:54:12.972Z,16.98
2019-04-20T06:56:54.057Z,16.69
2019-04-20T06:59:33.434Z,16.79
2019-04-20T07:02:03.907Z,16.88
2019-04-20T07:04:48.625Z,16.86
2019-04-20T07:07:18.501Z,17.10
2019-04-20T07:12:03.070Z,17.43
2019-04-20T07:14:27.526Z,17.47
2019-04-20T07:17:24.885Z,17.72
2019-04-20T07:19:40.191Z,17.85
2019-04-20T07:22:31.399Z,17.94
2019-04-20T07:24:57.385Z,18.00
2019-04-20T07:27:19.328Z,18.01
2019-04-20T07:30:00.555Z,18.02
2019-04-20T07:32:17.431Z,18.04
2019-04-20T07:34:56.840Z,18.11
2019-04-20T07:40:05.887Z,18.41
2019-04-20T07:42:34.623Z,18.55
2019-04-20T07:45:07.654Z,18.57
2019-04-20T07:47:40.590Z,18.68
2019-04-20T07:50:05.104Z,18.65
2019-04-20T07:52:31.895Z,18.68
2019-04-20T07:57:37.449Z,18.64
2019-04-20T08:00:13.419Z,18.52
2019-04-20T08:03:12.192Z,18.66
2019-04-20T08:05:36.989Z,18.89
2019-04-20T08:08:20.956Z,19.05
2019-04-20T08:10:39.494Z,19.26
2019-04-20T08:13:30.477Z,19.26
2019-04-20T08:15:58.788Z,19.36
2019-04-20T08:18:27.799Z,19.26
2019-04-20T08:20:57.638Z,19.43
2019-04-20T08:23:32.008Z,19.62
2019-04-20T08:25:49.436Z,19.72
2019-04-20T08:28:24.157Z,19.54
2019-04-20T08:31:06.332Z,19.45
2019-04-20T08:33:55.470Z,19.66
2019-04-20T08:36:17.067Z,19.72
2019-04-20T08:41:19.381Z,19.81
2019-04-20T08:44:06.426Z,19.86
2019-04-20T08:48:57.039Z,20.06
2019-04-20T08:51:25.952Z,20.05
2019-04-20T08:53:56.418Z,20.22
2019-04-20T08:56:21.982Z,20.26
2019-04-20T08:58:41.637Z,20.27
2019-04-20T09:01:20.205Z,20.50
2019-04-20T09:03:54.414Z,20.64
2019-04-20T09:06:32.311Z,20.52
2019-04-20T09:09:02.900Z,20.28
2019-04-20T09:11:44.757Z,20.20
2019-04-20T09:13:53.567Z,20.41
2019-04-20T09:16:26.896Z,20.64
2019-04-20T09:18:59.867Z,20.71
2019-04-20T09:21:37.943Z,20.90
2019-04-20T09:24:22.758Z,21.08
2019-04-20T09:26:47.545Z,21.08
2019-04-20T09:29:12.689Z,21.15
2019-04-20T09:31:44.367Z,21.33
2019-04-20T09:34:20.564Z,21.19
2019-04-20T09:36:51.406Z,21.24
2019-04-20T09:39:21.116Z,21.38
2019-04-20T09:42:01.545Z,21.59
2019-04-20T09:44:39.835Z,21.47
2019-04-20T09:47:05.028Z,21.46
2019-04-20T09:49:46.084Z,21.56
2019-04-20T09:52:23.677Z,21.56
2019-04-20T09:54:55.202Z,21.54
2019-04-20T09:57:29.661Z,21.75
2019-04-20T09:59:57.680Z,21.85
2019-04-20T10:02:19.898Z,21.99
2019-04-20T10:04:44.570Z,21.94
2019-04-20T10:07:19.609Z,21.87
2019-04-20T10:09:47.401Z,21.97
2019-04-20T10:12:19.653Z,21.98
2019-04-20T10:14:50.877Z,22.05
2019-04-20T10:17:20.890Z,22.22
2019-04-20T10:19:51.407Z,22.26
2019-04-20T10:22:22.556Z,22.32
2019-04-20T10:24:53.821Z,22.27
2019-04-20T10:27:24.371Z,22.29
2019-04-20T10:29:55.498Z,22.31
2019-04-20T10:32:34.153Z,22.35
2019-04-20T10:34:57.175Z,22.38
2019-04-20T10:37:29.368Z,22.43
2019-04-20T10:40:00.527Z,22.48
2019-04-20T10:42:30.556Z,22.52
2019-04-20T10:45:01.107Z,22.54
2019-04-20T10:47:32.762Z,22.59
2019-04-20T10:50:03.184Z,22.61
2019-04-20T10:52:33.970Z,22.78
2019-04-20T10:55:04.632Z,22.80
2019-04-20T10:57:35.392Z,22.77
2019-04-20T11:00:08.310Z,22.75
2019-04-20T11:02:39.282Z,22.75
2019-04-20T11:05:10.817Z,22.98
2019-04-20T11:07:41.026Z,23.01
2019-04-20T11:10:19.835Z,22.95
2019-04-20T11:12:42.764Z,22.97
2019-04-20T11:15:12.747Z,22.91
2019-04-20T11:17:43.552Z,22.76
2019-04-20T11:20:13.523Z,22.89
2019-04-20T11:22:44.318Z,23.11
2019-04-20T11:25:14.970Z,23.14
2019-04-20T11:27:45.930Z,23.25
2019-04-20T11:30:16.272Z,23.36
2019-04-20T11:32:46.277Z,23.34
2019-04-20T11:35:23.890Z,23.48
2019-04-20T11:37:49.157Z,23.48
2019-04-20T11:40:19.520Z,23.40
2019-04-20T11:42:50.002Z,23.45
2019-04-20T11:45:20.529Z,23.54
2019-04-20T11:47:51.574Z,23.53
2019-04-20T11:50:22.018Z,23.62
2019-04-20T11:52:52.990Z,23.63
2019-04-20T11:55:24.284Z,23.48
2019-04-20T11:57:54.233Z,23.56
2019-04-20T12:00:53.876Z,23.69
2019-04-20T12:03:26.017Z,23.85
2019-04-20T12:05:53.798Z,23.86
2019-04-20T12:08:22.854Z,23.80
2019-04-20T12:10:56.704Z,23.79
2019-04-20T12:13:24.827Z,23.89
2019-04-20T12:15:56.019Z,23.91
2019-04-20T12:18:27.484Z,24.14
2019-04-20T12:20:58.789Z,24.10
2019-04-20T13:22:28.774Z,25.12
2019-04-20T13:24:58.974Z,25.44
2019-04-20T13:27:29.182Z,25.73
2019-04-20T13:29:59.128Z,25.76
2019-04-20T13:32:29.766Z,25.84
2019-04-20T13:35:00.287Z,25.48
2019-04-20T13:37:31.650Z,25.53
2019-04-20T13:40:02.998Z,25.48
2019-04-20T13:42:33.504Z,25.54
2019-04-20T13:45:08.821Z,25.59
2019-04-20T13:47:39.064Z,25.92
2019-04-20T13:50:12.405Z,25.87
2019-04-20T13:52:41.107Z,25.93
2019-04-20T13:55:12.798Z,25.60
2019-04-20T13:57:44.300Z,25.81
2019-04-20T14:00:20.465Z,26.09
2019-04-20T14:03:08.995Z,26.06
2019-04-20T14:05:40.498Z,26.49
2019-04-20T14:08:11.650Z,27.08
2019-04-20T14:10:43.220Z,27.51
2019-04-20T14:13:16.785Z,27.32
2019-04-20T14:15:45.094Z,26.62
2019-04-20T14:18:15.269Z,26.83
2019-04-20T14:20:45.194Z,27.27
2019-04-20T14:23:15.040Z,27.68
2019-04-20T14:25:45.261Z,28.08
2019-04-20T14:28:15.477Z,28.58
2019-04-20T14:30:45.943Z,27.78
2019-04-20T14:33:16.895Z,27.55
2019-04-20T14:35:47.215Z,27.79
2019-04-20T14:38:17.935Z,28.27
2019-04-20T14:40:48.359Z,27.91
2019-04-20T14:43:19.385Z,27.86
2019-04-20T14:45:50.519Z,28.33
2019-04-20T14:48:20.741Z,28.23
2019-04-20T14:50:51.893Z,28.35
2019-04-20T14:53:23.133Z,28.74
2019-04-20T14:55:53.697Z,28.50
2019-04-20T14:58:42.184Z,28.04
2019-04-20T15:01:32.501Z,27.96
2019-04-20T15:04:09.507Z,28.67
2019-04-20T15:06:37.902Z,27.89
2019-04-20T15:09:08.927Z,27.96
2019-04-20T15:11:41.683Z,26.84
2019-04-20T15:14:11.043Z,26.81
2019-04-20T15:16:42.555Z,26.70
2019-04-20T15:19:13.602Z,26.40
2019-04-20T15:21:53.820Z,25.95
2019-04-20T15:24:23.824Z,25.77
2019-04-20T15:26:58.727Z,25.74
2019-04-20T15:29:28.664Z,25.49
2019-04-20T15:31:59.911Z,25.36
2019-04-20T15:34:30.895Z,25.27
2019-04-20T15:37:02.347Z,25.34
2019-04-20T15:39:32.940Z,25.25
2019-04-20T15:42:03.333Z,25.15
2019-04-20T15:44:33.493Z,25.08
2019-04-20T15:47:03.718Z,24.96
2019-04-20T15:49:33.803Z,24.97
2019-04-20T15:52:03.957Z,24.94
2019-04-20T15:54:34.077Z,24.97
2019-04-20T15:57:12.310Z,25.00
2019-04-20T15:59:35.534Z,24.98
2019-04-20T16:02:13.553Z,24.97
2019-04-20T16:05:00.718Z,24.90
2019-04-20T16:07:37.798Z,24.83
2019-04-20T16:10:03.336Z,24.73
2019-04-20T16:12:33.305Z,24.76
2019-04-20T16:15:03.951Z,24.69
2019-04-20T16:17:39.177Z,24.66
2019-04-20T16:20:12.605Z,24.73
2019-04-20T16:22:38.520Z,24.63
2019-04-20T16:25:17.274Z,24.63
2019-04-20T16:27:47.677Z,24.60
2019-04-20T16:30:19.867Z,24.53
2019-04-20T16:32:50.275Z,24.54
2019-04-20T16:35:20.390Z,24.60
2019-04-20T16:37:50.724Z,24.59
2019-04-20T16:40:21.002Z,24.52
2019-04-20T16:42:52.056Z,24.44
2019-04-20T16:45:23.194Z,24.33
2019-04-20T16:47:54.511Z,24.28
2019-04-20T16:50:24.750Z,24.22
2019-04-20T16:52:55.069Z,24.23
2019-04-20T16:55:25.204Z,24.15
2019-04-20T16:57:55.501Z,24.17
2019-04-20T17:00:27.407Z,24.11
2019-04-20T17:02:58.462Z,24.07
2019-04-20T17:05:29.233Z,23.94
2019-04-20T17:08:00.852Z,23.89
2019-04-20T17:10:30.839Z,23.93
2019-04-20T17:13:01.892Z,23.83
2019-04-20T17:15:31.872Z,23.86
2019-04-20T17:18:01.695Z,23.90
2019-04-20T17:20:32.732Z,23.82
2019-04-20T17:23:05.614Z,23.70
2019-04-20T17:25:34.473Z,23.67
2019-04-20T17:28:22.676Z,23.63
2019-04-20T17:31:01.057Z,23.57
2019-04-20T17:33:46.517Z,23.53
2019-04-20T17:36:14.443Z,23.60
2019-04-20T17:38:43.361Z,23.59
2019-04-20T17:41:23.688Z,23.56
2019-04-20T17:44:00.315Z,23.54
2019-04-20T17:46:24.827Z,23.46
2019-04-20T17:49:00.594Z,23.41
2019-04-20T17:51:36.171Z,23.36
2019-04-20T17:53:52.712Z,23.31
2019-04-20T17:56:17.893Z,23.30
2019-04-20T17:58:48.044Z,23.26
2019-04-20T18:01:48.910Z,23.18
2019-04-20T18:04:51.906Z,23.15
2019-04-20T18:07:04.358Z,23.04
2019-04-20T18:09:47.486Z,23.01
2019-04-20T18:11:59.663Z,23.00
2019-04-20T18:14:43.127Z,22.92
2019-04-20T18:17:17.753Z,22.91
2019-04-20T18:19:49.240Z,22.83
2019-04-20T18:22:19.728Z,22.73
2019-04-20T18:25:12.201Z,22.65
2019-04-20T18:27:45.516Z,22.59
2019-04-20T18:30:10.753Z,22.55
2019-04-20T18:32:29.745Z,22.46
2019-04-20T18:35:04.746Z,22.41
2019-04-20T18:37:34.369Z,22.36
2019-04-20T18:40:14.327Z,22.32
2019-04-20T18:42:45.285Z,22.22
2019-04-20T18:45:29.651Z,22.17
2019-04-20T18:48:06.560Z,22.10
2019-04-20T18:50:25.180Z,22.04
2019-04-20T18:52:51.644Z,22.00
2019-04-20T18:55:31.246Z,21.95
2019-04-20T18:57:55.060Z,21.91
2019-04-20T19:00:31.912Z,21.89
2019-04-20T19:03:06.480Z,21.79
2019-04-20T19:05:29.586Z,21.78
2019-04-20T19:08:04.397Z,21.70
2019-04-20T19:10:36.371Z,21.72
2019-04-20T19:13:07.976Z,21.60
2019-04-20T19:16:03.677Z,21.53
2019-04-20T19:18:54.853Z,21.49
2019-04-20T19:21:11.023Z,21.42
2019-04-20T19:23:51.607Z,21.36
2019-04-20T19:26:18.203Z,21.37
2019-04-20T19:28:50.015Z,21.28
2019-04-20T19:31:36.737Z,21.29
2019-04-20T19:34:09.747Z,21.27
2019-04-20T19:36:28.794Z,21.21
2019-04-20T19:39:06.080Z,21.13
2019-04-20T19:41:32.004Z,21.05
2019-04-20T19:44:07.023Z,21.05
2019-04-20T19:47:03.206Z,21.01
2019-04-20T19:49:07.960Z,20.94
2019-04-20T19:51:48.097Z,20.95
2019-04-20T19:54:24.292Z,20.87
2019-04-20T19:56:48.747Z,20.80
2019-04-20T19:59:11.009Z,20.76
2019-04-20T20:01:35.626Z,20.72
2019-04-20T20:04:09.268Z,20.68
2019-04-20T20:06:45.346Z,20.67
2019-04-20T20:09:12.731Z,20.57
2019-04-20T20:11:44.401Z,20.54
2019-04-20T20:14:16.989Z,20.41
2019-04-20T20:17:04.256Z,20.40
2019-04-20T20:19:32.355Z,20.34
2019-04-20T20:22:02.715Z,20.24
2019-04-20T20:24:19.661Z,20.20
2019-04-20T20:26:56.351Z,20.15
2019-04-20T20:29:33.458Z,20.13
2019-04-20T20:32:07.279Z,20.09
2019-04-20T20:34:32.599Z,20.08
2019-04-20T20:37:01.794Z,20.08
2019-04-20T20:39:32.607Z,19.99
2019-04-20T20:42:15.313Z,19.89
2019-04-20T20:44:41.191Z,19.88
2019-04-20T20:47:33.893Z,19.85
2019-04-20T20:50:03.238Z,19.79
2019-04-20T20:52:23.206Z,19.77
2019-04-20T20:54:49.484Z,19.75
2019-04-20T20:57:15.383Z,19.64
2019-04-20T20:59:51.354Z,19.63
2019-04-20T21:02:19.736Z,19.55
2019-04-20T21:04:45.598Z,19.52
2019-04-20T21:07:16.385Z,19.45
2019-04-20T21:09:46.419Z,19.43
2019-04-20T21:12:18.122Z,19.41
2019-04-20T21:14:49.026Z,19.32
2019-04-20T21:17:23.608Z,19.31
2019-04-20T21:20:06.296Z,19.30
2019-04-20T21:22:41.204Z,19.23
2019-04-20T21:24:56.811Z,19.20
2019-04-20T21:27:27.687Z,19.16
2019-04-20T21:29:59.981Z,19.08
2019-04-20T21:32:33.015Z,19.02
2019-04-20T21:35:05.275Z,19.02
2019-04-20T21:37:32.714Z,18.99
2019-04-20T21:40:14.043Z,18.94
2019-04-20T21:42:44.555Z,18.93
2019-04-20T21:45:16.873Z,18.85
2019-04-20T21:47:42.948Z,18.82
2019-04-20T21:50:33.542Z,18.71
2019-04-20T21:52:48.530Z,18.76
2019-04-20T21:55:16.244Z,18.70
2019-04-20T21:57:51.529Z,18.64
2019-04-20T22:00:42.255Z,18.54
2019-04-20T22:03:11.887Z,18.47
2019-04-20T22:05:42.333Z,18.43
2019-04-20T22:08:15.946Z,18.44
2019-04-20T22:10:44.945Z,18.37
2019-04-20T22:13:19.474Z,18.41
2019-04-20T22:15:55.461Z,18.40
2019-04-20T22:18:21.260Z,18.29
2019-04-20T22:21:02.340Z,18.21
2019-04-20T22:23:36.602Z,18.19
2019-04-20T22:26:04.142Z,18.13
2019-04-20T22:28:24.448Z,18.02
2019-04-20T22:30:55.763Z,18.11
2019-04-20T22:33:31.914Z,18.00
2019-04-20T22:36:03.857Z,17.91
2019-04-20T22:38:55.892Z,17.93
2019-04-20T22:41:24.107Z,17.87
2019-04-20T22:43:52.555Z,17.82
2019-04-20T22:46:24.749Z,17.73
2019-04-20T22:49:15.524Z,17.75
2019-04-20T22:51:39.953Z,17.74
2019-04-20T22:54:17.331Z,17.66
2019-04-20T22:56:43.484Z,17.63
2019-04-20T22:59:08.634Z,17.58
2019-04-20T23:01:40.807Z,17.52
2019-04-20T23:04:04.357Z,17.50
2019-04-20T23:06:38.628Z,17.45
2019-04-20T23:09:11.724Z,17.42
2019-04-20T23:11:42.279Z,17.42
2019-04-20T23:14:12.169Z,17.39
2019-04-20T23:16:47.372Z,17.26
2019-04-20T23:19:14.220Z,17.26
2019-04-20T23:21:48.576Z,17.18
2019-04-20T23:24:17.101Z,17.15
2019-04-20T23:26:47.631Z,17.12
2019-04-20T23:29:22.683Z,17.04
2019-04-20T23:31:55.675Z,17.03
2019-04-20T23:34:25.540Z,16.98
2019-04-20T23:36:53.002Z,16.96
2019-04-20T23:39:29.088Z,16.96
2019-04-20T23:41:59.787Z,16.87
2019-04-20T23:44:31.561Z,16.83
2019-04-20T23:47:11.147Z,16.75
2019-04-20T23:49:54.165Z,16.83
2019-04-20T23:52:32.434Z,16.67
2019-04-20T23:54:49.020Z,16.67
2019-04-20T23:57:13.564Z,16.62
2019-04-20T23:59:46.243Z,16.61
